Terminal Aerodrome Forecast
Issued by NWS Atlanta, GA

Home | Current Version | Previous Version | Text Only | Print | Product List | Glossary On
Versions: 1 2 3 4 5 6 7 8 9 10 11 12 13 14 15 16 17 18
000
FTUS42 KFFC 241700
TAFMCN
TAF
KMCN 241737Z 2418/2518 25008G16KT P6SM VCSH SCT035 BKN060
     FM250000 26005KT P6SM VCSH SCT050 BKN100
     FM250400 00000KT P6SM SCT120
     FM250900 00000KT 5SM BR SCT120
     FM251400 25004KT P6SM SCT060=

USA.gov is the U.S. government's official web portal to all federal, state and local government web resources and services.